createdAt,value
2019-01-05T00:04:46.098Z,15.88
2019-01-05T00:10:41.127Z,15.19
2019-01-05T00:16:36.091Z,14.4
2019-01-05T00:22:31.104Z,13.97
2019-01-05T00:28:26.117Z,13.53
2019-01-05T00:34:21.140Z,14.97
2019-01-05T00:40:17.067Z,14.55
2019-01-05T00:46:11.142Z,15.02
2019-01-05T00:52:06.130Z,14.46
2019-01-05T00:58:01.170Z,14.84
2019-01-05T01:03:56.144Z,18.48
2019-01-05T01:09:51.130Z,18.3
2019-01-05T01:15:46.187Z,18.89
2019-01-05T01:21:41.192Z,17.54
2019-01-05T01:27:36.141Z,17.98
2019-01-05T01:33:31.145Z,17.12
2019-01-05T01:39:26.135Z,16.81
2019-01-05T01:45:21.152Z,16.17
2019-01-05T01:51:16.145Z,16.95
2019-01-05T01:57:11.133Z,17.22
2019-01-05T02:03:06.191Z,17.6
2019-01-05T02:09:01.172Z,17.55
2019-01-05T02:14:56.181Z,16.38
2019-01-05T02:20:51.177Z,17.78
2019-01-05T02:26:46.195Z,17.32
2019-01-05T02:32:41.175Z,17.44
2019-01-05T02:38:36.189Z,18.3
2019-01-05T02:44:31.161Z,15.81
2019-01-05T02:50:26.178Z,16.38
2019-01-05T02:56:21.206Z,17.53
2019-01-05T03:02:16.199Z,16.78
2019-01-05T03:08:11.200Z,16.5
2019-01-05T03:14:06.194Z,17.36
2019-01-05T03:20:01.205Z,16.21
2019-01-05T03:25:56.222Z,15.64
2019-01-05T03:31:51.226Z,15.33
2019-01-05T03:37:46.309Z,14.34
2019-01-05T03:43:41.288Z,14.89
2019-01-05T03:49:36.234Z,16.52
2019-01-05T03:55:31.209Z,16.99
2019-01-05T04:01:26.250Z,15.88
2019-01-05T04:07:21.228Z,15.65
2019-01-05T04:13:16.239Z,15.73
2019-01-05T04:19:11.235Z,15.56
2019-01-05T04:25:06.255Z,15.19
2019-01-05T04:31:01.268Z,16.04
2019-01-05T04:36:56.291Z,15.18
2019-01-05T04:42:51.242Z,15.64
2019-01-05T04:48:46.283Z,14.17
2019-01-05T04:54:41.256Z,15.71
2019-01-05T05:00:36.268Z,16.29
2019-01-05T05:06:31.255Z,14.07
2019-01-05T05:12:26.314Z,15
2019-01-05T05:18:21.319Z,15.13
2019-01-05T05:24:16.255Z,14.47
2019-01-05T05:30:11.259Z,15.44
2019-01-05T05:36:06.291Z,14.77
2019-01-05T05:42:01.265Z,14.83
2019-01-05T05:47:56.278Z,14.63
2019-01-05T05:53:51.279Z,14.02
2019-01-05T05:59:46.353Z,14.81
2019-01-05T06:05:41.277Z,13.59
2019-01-05T06:11:36.338Z,11.96
2019-01-05T06:17:31.289Z,13.13
2019-01-05T06:23:26.288Z,13.8
2019-01-05T06:29:21.286Z,14.83
2019-01-05T06:35:16.279Z,14.19
2019-01-05T06:41:11.289Z,13.16
2019-01-05T06:47:06.294Z,12.17
2019-01-05T06:53:01.352Z,12.63
2019-01-05T06:58:56.360Z,12.74
2019-01-05T07:04:51.321Z,13.82
2019-01-05T07:10:46.308Z,13.56
2019-01-05T07:16:41.306Z,13.51
2019-01-05T07:22:36.339Z,12.61
2019-01-05T07:28:31.349Z,11.67
2019-01-05T07:34:26.342Z,11.6
2019-01-05T07:40:21.379Z,13.54
2019-01-05T07:46:16.343Z,13.34
2019-01-05T07:52:11.374Z,17.52
2019-01-05T07:58:06.332Z,15.2
2019-01-05T08:04:01.346Z,15.3
2019-01-05T08:09:56.337Z,13.75
2019-01-05T08:15:51.371Z,15.72
2019-01-05T08:21:46.366Z,16.81
2019-01-05T08:27:41.366Z,15.1
2019-01-05T08:33:36.372Z,18.48
2019-01-05T08:39:31.359Z,16.86
2019-01-05T08:45:26.385Z,16.78
2019-01-05T08:51:21.387Z,14.53
2019-01-05T08:57:16.407Z,14.12
2019-01-05T09:03:11.350Z,14.26
2019-01-05T09:09:06.383Z,15.86
2019-01-05T09:15:01.373Z,15.35
2019-01-05T09:20:56.390Z,15.33
2019-01-05T09:26:51.404Z,15.94
2019-01-05T09:32:46.375Z,15.52
2019-01-05T09:38:41.438Z,15.21
2019-01-05T09:44:36.406Z,16.83
2019-01-05T09:50:31.406Z,17.07
2019-01-05T09:56:26.415Z,17.7
2019-01-05T10:02:21.427Z,16.28
2019-01-05T10:08:16.429Z,15.04
2019-01-05T10:14:11.425Z,14.5
2019-01-05T10:20:06.445Z,14.31
2019-01-05T10:26:01.428Z,15.05
2019-01-05T10:31:56.401Z,15.15
2019-01-05T10:37:51.422Z,16.59
2019-01-05T10:43:46.441Z,17.07
2019-01-05T10:49:41.427Z,15.63
2019-01-05T10:55:36.439Z,16.65
2019-01-05T11:01:31.456Z,18.24
2019-01-05T11:07:26.447Z,17.41
2019-01-05T11:13:21.435Z,17.42
2019-01-05T11:19:16.519Z,16.37
2019-01-05T11:25:11.489Z,16.03
2019-01-05T11:31:06.486Z,14.63
2019-01-05T11:37:01.564Z,14.95
2019-01-05T11:42:56.495Z,15.08
2019-01-05T11:48:51.477Z,14.62
2019-01-05T11:54:46.483Z,14.06
2019-01-05T12:00:41.491Z,18.59
2019-01-05T12:06:36.470Z,20.43
2019-01-05T12:12:31.488Z,16.62
2019-01-05T12:18:26.472Z,15.81
2019-01-05T12:24:21.491Z,14.83
2019-01-05T12:30:16.498Z,15.72
2019-01-05T12:36:11.489Z,26.67
2019-01-05T12:42:06.566Z,11.05
2019-01-05T12:48:01.481Z,9.73
2019-01-05T12:53:56.482Z,9.77
2019-01-05T12:59:51.520Z,10.27
2019-01-05T13:05:46.489Z,10.69
2019-01-05T13:11:41.523Z,9.81
2019-01-05T13:17:36.523Z,10.35
2019-01-05T13:23:31.542Z,10.58
2019-01-05T13:29:26.521Z,10.68
2019-01-05T13:35:21.514Z,12.35
2019-01-05T13:41:16.522Z,11.76
2019-01-05T13:47:11.539Z,12.75
2019-01-05T13:53:06.580Z,12.29
2019-01-05T13:59:01.554Z,13.59
2019-01-05T14:04:56.547Z,12.54
2019-01-05T14:10:51.828Z,12.57
2019-01-05T14:16:46.577Z,12.48
2019-01-05T14:22:41.582Z,13.89
2019-01-05T14:28:36.579Z,11.93
2019-01-05T14:34:31.653Z,15.67
2019-01-05T14:40:26.554Z,14.52
2019-01-05T14:46:21.538Z,13.09
2019-01-05T14:52:16.566Z,13.41
2019-01-05T14:58:11.558Z,14.77
2019-01-05T15:04:06.638Z,13.43
2019-01-05T15:10:01.587Z,12.8
2019-01-05T15:15:56.600Z,13.92
2019-01-05T15:21:51.579Z,13.63
2019-01-05T15:27:46.578Z,12.67
2019-01-05T15:33:41.663Z,12.87
2019-01-05T15:39:36.600Z,12.8
2019-01-05T15:45:31.629Z,13.05
2019-01-05T15:51:26.600Z,13.82
2019-01-05T15:57:21.618Z,14.02
2019-01-05T16:03:16.597Z,14.73
2019-01-05T16:09:11.647Z,14
2019-01-05T16:15:06.675Z,14.77
2019-01-05T16:21:01.643Z,16.43
2019-01-05T16:26:59.125Z,15.39
2019-01-05T16:32:51.652Z,18.83
2019-01-05T16:38:46.620Z,17.43
2019-01-05T16:44:41.648Z,19.96
2019-01-05T16:50:36.621Z,23.85
2019-01-05T16:56:31.619Z,20.13
2019-01-05T17:02:26.679Z,19.46
2019-01-05T17:08:21.662Z,20.53
2019-01-05T17:14:16.669Z,23.6
2019-01-05T17:20:11.667Z,23.4
2019-01-05T17:26:06.653Z,23.06
2019-01-05T17:32:01.667Z,21.44
2019-01-05T17:37:56.669Z,21.38
2019-01-05T17:43:51.667Z,20.95
2019-01-05T17:49:46.693Z,22.26
2019-01-05T17:55:41.689Z,21.97
2019-01-05T18:01:36.696Z,19.67
2019-01-05T18:07:31.719Z,20.25
2019-01-05T18:13:26.733Z,27.95
2019-01-05T18:19:21.734Z,26.58
2019-01-05T18:25:16.738Z,25.45
2019-01-05T18:31:11.686Z,27.61
2019-01-05T18:37:06.723Z,27.18
2019-01-05T18:43:01.683Z,27.46
2019-01-05T18:48:56.692Z,24.26
2019-01-05T18:54:51.697Z,27.29
2019-01-05T19:00:46.733Z,26.37
2019-01-05T19:06:41.738Z,24.78
2019-01-05T19:12:36.727Z,26.4
2019-01-05T19:18:31.750Z,23.1
2019-01-05T19:24:26.762Z,21.19
2019-01-05T19:30:21.754Z,24.17
2019-01-05T19:36:16.725Z,25.75
2019-01-05T19:42:11.738Z,23.84
2019-01-05T19:48:06.724Z,23.76
2019-01-05T19:54:01.757Z,21.97
2019-01-05T19:59:56.749Z,23.75
2019-01-05T20:05:51.780Z,23.7
2019-01-05T20:11:46.733Z,20.76
2019-01-05T20:17:41.750Z,20.61
2019-01-05T20:23:36.769Z,20.47
2019-01-05T20:29:31.758Z,20.42
2019-01-05T20:35:26.790Z,22.83
2019-01-05T20:41:21.744Z,20.97
2019-01-05T20:47:16.754Z,21.13
2019-01-05T20:53:11.752Z,19.49
2019-01-05T20:59:06.752Z,20.48
2019-01-05T21:05:01.813Z,19.93
2019-01-05T21:10:56.765Z,20.17
2019-01-05T21:16:51.766Z,21.59
2019-01-05T21:22:46.790Z,20.58
2019-01-05T21:28:41.801Z,22.4
2019-01-05T21:34:36.784Z,23.38
2019-01-05T21:40:31.799Z,21.64
2019-01-05T21:46:26.789Z,22.77
2019-01-05T21:52:21.789Z,23.05
2019-01-05T21:58:16.786Z,22.8
2019-01-05T22:04:11.785Z,22.02
2019-01-05T22:10:06.798Z,21.2
2019-01-05T22:16:01.816Z,24.73
2019-01-05T22:21:56.815Z,21.48
2019-01-05T22:27:51.860Z,22.53
2019-01-05T22:33:46.836Z,22.51
2019-01-05T22:39:41.816Z,22.35
2019-01-05T22:45:36.852Z,24.93
2019-01-05T22:51:31.817Z,24.23
2019-01-05T22:57:26.834Z,23.76
2019-01-05T23:03:21.872Z,22.73
2019-01-05T23:09:16.852Z,23.23
2019-01-05T23:15:11.841Z,20.9
2019-01-05T23:21:06.834Z,21.67
2019-01-05T23:27:01.849Z,21.93
2019-01-05T23:32:56.846Z,20.03
2019-01-05T23:38:51.847Z,22.08
2019-01-05T23:44:46.871Z,20.48
2019-01-05T23:50:41.868Z,21.22
2019-01-05T23:56:36.903Z,20.08
